Time;durP1;ratioP1;P1;durP2;ratioP2;P2;SDS_P1;SDS_P2;PMS_P1;PMS_P2;Temp;Humidity;BMP_temperature;BMP_pressure;BME280_temperature;BME280_humidity;BME280_pressure;Samples;Min_cycle;Max_cycle;Signal;HPM_P1;HPM_P2
2022/05/02 00:00:10;;;;;;;16.85;8.95;;;;;;;16.71;51.41;102031.00;5072676;28;20043;-55
2022/05/02 00:02:37;;;;;;;20.65;8.73;;;;;;;16.77;51.24;102027.47;5071136;28;20041;-55
2022/05/02 00:05:03;;;;;;;18.85;9.50;;;;;;;16.63;51.63;102022.06;5076181;28;20116;-55
2022/05/02 00:07:29;;;;;;;15.32;8.50;;;;;;;16.75;51.36;102022.28;5073343;28;20040;-54
2022/05/02 00:09:54;;;;;;;21.70;8.83;;;;;;;16.44;52.67;102020.19;5084259;28;20055;-52
2022/05/02 00:12:20;;;;;;;19.13;8.25;;;;;;;16.63;52.04;102022.06;5083223;28;20108;-56
2022/05/02 00:14:45;;;;;;;17.50;9.03;;;;;;;16.61;52.39;102020.63;5091447;28;20100;-50
2022/05/02 00:17:11;;;;;;;20.87;8.37;;;;;;;16.51;52.86;102022.88;5078353;28;20037;-55
2022/05/02 00:19:36;;;;;;;17.23;9.57;;;;;;;16.53;52.72;102026.22;5090440;28;20106;-55
2022/05/02 00:22:02;;;;;;;19.58;10.80;;;;;;;16.69;52.06;102020.41;5085040;28;20041;-55
2022/05/02 00:24:28;;;;;;;22.13;8.68;;;;;;;16.56;52.64;102020.41;5083108;28;20097;-55
2022/05/02 00:26:54;;;;;;;15.97;8.43;;;;;;;16.44;53.29;102018.31;5092022;28;20032;-56
2022/05/02 00:29:19;;;;;;;16.27;8.13;;;;;;;16.55;53.25;102021.44;5079072;28;20277;-55
2022/05/02 00:31:47;;;;;;;16.43;8.90;;;;;;;16.54;53.06;102012.53;5088786;28;20056;-55
2022/05/02 00:34:13;;;;;;;21.63;8.90;;;;;;;16.42;53.59;102006.06;5086111;28;20249;-53
2022/05/02 00:36:39;;;;;;;16.67;9.15;;;;;;;16.34;54.11;102002.53;5081310;28;20037;-54
2022/05/02 00:39:05;;;;;;;17.38;9.18;;;;;;;16.34;54.18;101996.28;5092108;28;20033;-57
2022/05/02 00:41:31;;;;;;;21.15;8.65;;;;;;;16.41;54.23;102002.53;5080725;28;20040;-52
2022/05/02 00:43:56;;;;;;;15.33;8.97;;;;;;;16.41;54.02;101997.13;5087717;28;20048;-51
2022/05/02 00:46:24;;;;;;;20.13;9.60;;;;;;;16.37;54.51;101998.56;5087530;28;20040;-54
2022/05/02 00:48:50;;;;;;;16.65;8.90;;;;;;;16.26;54.85;101993.78;5079808;28;20113;-54
2022/05/02 00:51:17;;;;;;;19.33;10.15;;;;;;;16.33;54.99;101994.63;5091969;28;20032;-55
2022/05/02 00:53:46;;;;;;;15.63;8.02;;;;;;;16.25;55.49;101994.81;5081833;28;20024;-51
2022/05/02 00:56:12;;;;;;;15.60;8.90;;;;;;;16.23;55.60;101995.03;5084337;28;20047;-51
2022/05/02 00:58:38;;;;;;;17.47;9.10;;;;;;;16.20;55.75;101985.47;5089268;28;20032;-52
2022/05/02 01:01:05;;;;;;;19.17;9.15;;;;;;;16.25;55.71;101990.25;5076130;28;20028;-52
2022/05/02 01:03:33;;;;;;;15.48;8.77;;;;;;;16.29;55.39;101983.44;5079600;28;20037;-53
2022/05/02 01:08:43;;;;;;;13.40;9.18;;;;;;;16.05;56.40;101985.66;5072680;28;20064;-55
2022/05/02 01:11:09;;;;;;;15.00;8.53;;;;;;;15.95;57.19;101985.22;5081664;28;20033;-55
2022/05/02 01:13:40;;;;;;;14.43;7.50;;;;;;;15.78;57.82;101990.13;5079485;28;20127;-53
2022/05/02 01:16:11;;;;;;;15.75;8.25;;;;;;;16.10;57.16;101990.44;5085393;28;20041;-53
2022/05/02 01:18:37;;;;;;;16.48;8.20;;;;;;;16.22;55.96;101987.97;5078704;28;20033;-55
2022/05/02 01:21:16;;;;;;;16.90;8.52;;;;;;;15.99;56.96;101988.34;5089592;28;20085;-54
2022/05/02 01:23:49;;;;;;;16.20;9.00;;;;;;;15.95;57.51;101987.09;5080985;28;20043;-50
2022/05/02 01:26:14;;;;;;;16.27;9.07;;;;;;;15.79;58.33;101989.06;5083454;28;20040;-55
2022/05/02 01:28:44;;;;;;;15.02;8.60;;;;;;;15.74;58.21;101986.16;5088695;28;20586;-56
2022/05/02 01:31:10;;;;;;;15.45;8.85;;;;;;;15.75;58.49;101985.13;5077670;28;20096;-56
2022/05/02 01:33:36;;;;;;;14.38;8.57;;;;;;;15.67;58.66;101985.28;5089152;28;20059;-53
2022/05/02 01:36:02;;;;;;;13.50;8.13;;;;;;;15.66;58.36;101983.63;5083356;28;20055;-50
2022/05/02 01:38:27;;;;;;;16.40;8.70;;;;;;;15.61;58.65;101982.38;5081775;28;20037;-57
2022/05/02 01:40:53;;;;;;;15.37;8.30;;;;;;;15.75;57.94;101982.44;5090155;28;20292;-59
2022/05/02 01:43:18;;;;;;;18.37;8.17;;;;;;;15.74;57.85;101984.28;5076765;28;20029;-57
2022/05/02 01:45:43;;;;;;;14.73;7.90;;;;;;;15.52;58.16;101977.34;5088085;28;20092;-56
2022/05/02 01:48:10;;;;;;;16.35;8.25;;;;;;;15.62;58.03;101977.81;5084059;28;20036;-53
2022/05/02 01:50:36;;;;;;;16.37;8.67;;;;;;;15.54;58.25;101986.91;5080713;28;20045;-55
2022/05/02 01:53:01;;;;;;;16.88;7.75;;;;;;;15.46;58.89;101979.00;5074486;28;20060;-56
2022/05/02 01:55:27;;;;;;;15.93;8.10;;;;;;;15.38;59.50;101971.06;5089811;28;20151;-56
2022/05/02 01:57:52;;;;;;;13.50;7.90;;;;;;;15.39;59.66;101975.41;5074158;28;20059;-54
2022/05/02 02:00:19;;;;;;;14.80;8.13;;;;;;;15.34;59.84;101981.44;5087064;28;20024;-55
2022/05/02 02:02:45;;;;;;;15.57;9.40;;;;;;;15.32;59.89;101970.00;5078784;28;20052;-53
2022/05/02 02:07:55;;;;;;;16.50;8.75;;;;;;;15.33;60.63;101968.97;5081407;28;20265;-56
2022/05/02 02:10:21;;;;;;;18.27;9.67;;;;;;;15.22;61.24;101967.66;5082042;28;20069;-50
2022/05/02 02:12:46;;;;;;;15.37;8.40;;;;;;;15.25;61.15;101969.13;5074153;28;20029;-52
2022/05/02 02:15:15;;;;;;;16.10;8.73;;;;;;;15.28;61.46;101966.88;5090052;28;20280;-52
2022/05/02 02:17:41;;;;;;;18.88;8.85;;;;;;;15.27;61.25;101967.91;5079374;28;20036;-53
2022/05/02 02:20:08;;;;;;;13.80;9.10;;;;;;;15.37;61.24;101964.84;5084489;28;20181;-56
2022/05/02 02:22:35;;;;;;;16.38;9.18;;;;;;;15.40;61.02;101966.31;5073960;28;20044;-57
2022/05/02 02:25:01;;;;;;;15.25;8.55;;;;;;;15.36;61.58;101965.03;5090111;28;20028;-53
2022/05/02 02:27:27;;;;;;;15.27;9.10;;;;;;;15.19;62.32;101963.50;5077337;28;20062;-51
2022/05/02 02:29:52;;;;;;;16.42;9.05;;;;;;;15.20;62.22;101965.19;5086184;28;20033;-54
2022/05/02 02:32:18;;;;;;;14.83;8.07;;;;;;;15.57;60.87;101964.94;5073174;28;20037;-54
2022/05/02 02:34:43;;;;;;;18.43;8.83;;;;;;;15.45;60.94;101966.53;5087999;28;20036;-53
2022/05/02 02:37:09;;;;;;;19.67;9.23;;;;;;;15.19;62.29;101965.38;5076863;28;20047;-57
2022/05/02 02:39:35;;;;;;;20.20;9.40;;;;;;;15.18;63.06;101956.47;5088607;28;20029;-56
2022/05/02 02:42:00;;;;;;;15.00;8.33;;;;;;;15.12;64.38;101964.50;5073497;28;20056;-55
2022/05/02 02:44:26;;;;;;;15.10;8.97;;;;;;;15.17;63.59;101956.66;5085370;28;20055;-53
2022/05/02 02:46:51;;;;;;;18.43;9.80;;;;;;;15.04;64.54;101954.72;5077868;28;20070;-51
2022/05/02 02:49:17;;;;;;;17.42;8.80;;;;;;;14.98;65.51;101950.94;5087372;28;20049;-57
2022/05/02 02:51:42;;;;;;;16.33;9.37;;;;;;;14.90;66.16;101948.41;5073521;28;20045;-55
2022/05/02 02:54:07;;;;;;;19.33;9.40;;;;;;;14.93;65.62;101949.91;5082659;28;20067;-50
2022/05/02 02:56:33;;;;;;;19.77;9.80;;;;;;;14.98;65.99;101950.94;5080404;28;20052;-56
2022/05/02 02:58:58;;;;;;;17.17;9.70;;;;;;;15.00;65.82;101948.91;5089601;28;20032;-55
2022/05/02 03:01:24;;;;;;;16.70;9.90;;;;;;;15.09;65.42;101941.47;5073288;28;20052;-56
2022/05/02 03:03:50;;;;;;;15.77;9.65;;;;;;;14.93;66.20;101939.94;5079258;28;20059;-53
2022/05/02 03:06:15;;;;;;;14.43;8.53;;;;;;;14.96;66.67;101936.03;5082685;28;20037;-54
2022/05/02 03:08:41;;;;;;;17.43;9.27;;;;;;;14.92;66.88;101935.59;5087197;28;20060;-54
2022/05/02 03:11:07;;;;;;;15.90;9.35;;;;;;;14.97;66.69;101927.72;5075363;28;20041;-58
2022/05/02 03:13:34;;;;;;;19.13;9.85;;;;;;;14.90;66.94;101932.25;5077825;28;20028;-53
2022/05/02 03:16:00;;;;;;;16.88;10.20;;;;;;;14.84;67.87;101941.94;5081475;28;20099;-53
2022/05/02 03:18:26;;;;;;;18.77;8.80;;;;;;;14.88;67.33;101935.16;5081194;28;20036;-55
2022/05/02 03:20:52;;;;;;;17.65;9.90;;;;;;;14.55;69.89;101940.28;5088245;28;20047;-53
2022/05/02 03:23:18;;;;;;;16.48;9.43;;;;;;;14.58;70.54;101940.69;5076371;28;20037;-56
2022/05/02 03:25:44;;;;;;;17.13;9.27;;;;;;;14.56;71.81;101941.94;5087071;28;20045;-56
2022/05/02 03:28:10;;;;;;;17.75;9.98;;;;;;;14.54;72.00;101933.22;5082388;28;20055;-54
2022/05/02 03:30:36;;;;;;;17.90;9.87;;;;;;;14.52;71.80;101929.88;5079923;28;20029;-53
2022/05/02 03:33:02;;;;;;;20.63;10.63;;;;;;;14.55;72.45;101930.31;5088506;28;20041;-55
2022/05/02 03:35:27;;;;;;;20.38;10.38;;;;;;;14.48;73.22;101929.44;5060484;28;20033;-53
2022/05/02 03:37:53;;;;;;;18.27;9.10;;;;;;;14.70;71.75;101934.78;5089684;28;20112;-54
2022/05/02 03:40:18;;;;;;;16.53;10.23;;;;;;;14.72;70.76;101933.59;5086850;28;20032;-54
2022/05/02 03:42:44;;;;;;;23.63;10.40;;;;;;;14.77;69.79;101939.22;5082375;28;20047;-51
2022/05/02 03:45:09;;;;;;;15.50;9.47;;;;;;;14.77;70.19;101931.16;5092873;28;20051;-55
2022/05/02 03:47:35;;;;;;;19.57;10.27;;;;;;;14.82;69.75;101933.22;5080852;28;20272;-52
2022/05/02 03:50:00;;;;;;;16.40;9.77;;;;;;;14.69;70.40;101941.22;5088084;28;20104;-57
2022/05/02 03:52:26;;;;;;;26.43;10.90;;;;;;;14.63;70.24;101929.34;5076198;28;20033;-55
2022/05/02 03:54:52;;;;;;;;;;;;;;;14.75;69.65;101938.56;5091562;28;20312;-54
2022/05/02 03:57:18;;;;;;;18.40;10.60;;;;;;;14.70;69.96;101940.19;5079475;28;19912;-54
2022/05/02 03:59:43;;;;;;;19.77;11.03;;;;;;;14.52;71.71;101935.25;5090648;28;20036;-56
2022/05/02 04:02:09;;;;;;;20.67;10.43;;;;;;;15.45;66.40;101934.19;5085458;28;20082;-57
2022/05/02 04:04:35;;;;;;;19.15;11.05;;;;;;;14.76;69.36;101937.56;5084139;28;20025;-55
2022/05/02 04:07:00;;;;;;;23.63;12.17;;;;;;;14.68;70.01;101929.59;5092872;28;20045;-55
2022/05/02 04:09:26;;;;;;;23.47;11.33;;;;;;;14.58;71.03;101932.63;5076256;28;20037;-52
2022/05/02 04:11:52;;;;;;;22.10;11.82;;;;;;;14.23;74.05;101931.72;5076569;28;20037;-52
2022/05/02 04:14:17;;;;;;;28.57;11.77;;;;;;;14.41;73.38;101937.47;5086574;28;20051;-51
2022/05/02 04:16:43;;;;;;;26.20;11.82;;;;;;;14.48;72.74;101935.66;5082349;28;20033;-53
2022/05/02 04:19:08;;;;;;;28.13;14.00;;;;;;;14.52;72.37;101937.94;5092737;28;20028;-56
2022/05/02 04:21:34;;;;;;;26.73;12.90;;;;;;;14.76;70.22;101937.56;5076504;28;20071;-55
2022/05/02 04:24:00;;;;;;;22.17;12.30;;;;;;;14.58;71.64;101939.88;5084174;28;20068;-53
2022/05/02 04:26:25;;;;;;;23.57;12.87;;;;;;;14.68;70.55;101937.66;5084776;28;20056;-53
2022/05/02 04:28:52;;;;;;;27.73;13.65;;;;;;;14.71;70.26;101940.00;5078074;28;20321;-53
2022/05/02 04:31:17;;;;;;;21.60;11.68;;;;;;;14.72;70.80;101938.97;5092139;28;20060;-53
2022/05/02 04:33:44;;;;;;;21.07;12.93;;;;;;;14.66;70.82;101937.03;5081406;28;20044;-54
2022/05/02 04:36:10;;;;;;;21.90;11.93;;;;;;;14.84;70.36;101938.44;5086267;28;20033;-54
2022/05/02 04:38:35;;;;;;;24.60;12.80;;;;;;;15.16;69.19;101936.13;5075878;28;20037;-54
2022/05/02 04:41:01;;;;;;;23.63;11.80;;;;;;;15.43;66.83;101939.78;5091573;28;20044;-54
2022/05/02 04:43:27;;;;;;;21.43;12.03;;;;;;;14.87;69.31;101943.44;5078696;28;20048;-57
2022/05/02 04:45:52;;;;;;;20.10;11.97;;;;;;;15.76;65.26;101930.97;5088627;28;20051;-55
2022/05/02 04:48:18;;;;;;;18.97;12.00;;;;;;;15.89;63.81;101938.28;5084127;28;20281;-54
2022/05/02 04:50:43;;;;;;;22.03;11.70;;;;;;;16.05;63.07;101933.56;5081926;28;20045;-53
2022/05/02 04:53:09;;;;;;;24.73;12.25;;;;;;;16.05;62.75;101938.94;5075776;28;20045;-50
2022/05/02 04:55:34;;;;;;;21.40;11.03;;;;;;;16.08;62.70;101943.94;5091248;28;20033;-54
2022/05/02 04:58:00;;;;;;;28.40;12.07;;;;;;;16.24;61.76;101941.88;5082637;28;20086;-51
2022/05/02 05:00:25;;;;;;;20.77;11.47;;;;;;;16.29;61.51;101940.25;5083532;28;20032;-54
2022/05/02 05:02:51;;;;;;;21.10;11.90;;;;;;;16.30;61.19;101938.34;5075127;28;20033;-55
2022/05/02 05:05:16;;;;;;;27.80;12.07;;;;;;;16.19;61.48;101947.91;5091301;28;20036;-54
2022/05/02 05:07:43;;;;;;;25.97;12.47;;;;;;;16.27;61.05;101947.72;5079864;28;20277;-54
2022/05/02 05:10:10;;;;;;;27.60;12.73;;;;;;;16.22;61.14;101939.38;5086310;28;20044;-55
2022/05/02 05:13:07;;;;;;;24.75;12.80;;;;;;;16.24;61.22;101941.88;5075395;28;20041;-54
2022/05/02 05:18:41;;;;;;;27.70;12.45;;;;;;;16.41;60.27;101948.53;5082745;28;20060;-54
2022/05/02 05:21:27;;;;;;;27.58;13.05;;;;;;;16.50;60.06;101946.47;5091879;28;20040;-58
2022/05/02 05:24:30;;;;;;;22.50;12.65;;;;;;;16.58;59.32;101945.41;5081556;28;20046;-55
2022/05/02 05:27:17;;;;;;;27.10;12.95;;;;;;;16.78;58.21;101946.22;5079647;28;20060;-55
2022/05/02 05:30:00;;;;;;;26.73;11.95;;;;;;;16.81;58.21;101949.53;5059487;28;20061;-55
2022/05/02 05:32:44;;;;;;;25.83;13.07;;;;;;;16.92;57.72;101951.63;5073788;28;20041;-53
2022/05/02 05:35:14;;;;;;;27.75;12.13;;;;;;;16.85;58.02;101950.81;5091255;28;20032;-55
2022/05/02 05:38:01;;;;;;;23.08;14.23;;;;;;;16.96;57.37;101949.34;5078292;28;20070;-55
2022/05/02 05:40:36;;;;;;;;;;;;;;;17.03;57.35;101945.56;5084026;28;20263;-54
2022/05/02 05:43:11;;;;;;;24.75;12.60;;;;;;;17.21;56.80;101941.38;5074732;28;19969;-53
2022/05/02 05:45:57;;;;;;;33.13;13.73;;;;;;;17.40;56.09;101944.22;5053891;28;20034;-54
2022/05/02 05:48:32;;;;;;;23.98;12.77;;;;;;;17.45;55.49;101952.53;5071170;28;20033;-56
2022/05/02 05:51:10;;;;;;;25.35;13.57;;;;;;;17.45;55.62;101949.81;5074710;28;20040;-56
2022/05/02 05:54:08;;;;;;;23.25;12.27;;;;;;;17.51;55.19;101948.94;5078749;28;20032;-54
2022/05/02 05:56:48;;;;;;;27.00;13.30;;;;;;;17.58;54.75;101946.22;5083205;28;20571;-55
2022/05/02 05:59:25;;;;;;;20.00;12.52;;;;;;;17.53;54.68;101946.03;5090310;28;20056;-55
2022/05/02 06:01:56;;;;;;;24.33;14.35;;;;;;;17.61;54.22;101954.75;5074123;28;20048;-55
2022/05/02 06:04:31;;;;;;;30.35;13.65;;;;;;;17.66;53.92;101962.22;5083927;28;20040;-55
2022/05/02 06:06:58;;;;;;;24.20;12.43;;;;;;;17.67;53.59;101958.47;5079023;28;20040;-56
2022/05/02 06:09:27;;;;;;;25.77;12.93;;;;;;;17.61;53.51;101962.84;5077838;28;20037;-54
2022/05/02 06:11:57;;;;;;;21.58;11.55;;;;;;;17.80;52.77;101960.28;5067771;28;20051;-53
2022/05/02 06:14:26;;;;;;;24.73;12.60;;;;;;;17.92;52.42;101955.81;5073440;28;20495;-55
2022/05/02 06:19:40;;;;;;;25.02;13.55;;;;;;;18.04;51.12;101958.69;5074734;28;20036;-55
2022/05/02 06:22:07;;;;;;;18.42;10.35;;;;;;;17.99;50.47;101957.63;5075987;28;20033;-53
2022/05/02 06:24:36;;;;;;;21.77;13.23;;;;;;;18.03;50.99;101954.31;5073475;28;20028;-53
2022/05/02 06:27:03;;;;;;;52.15;19.48;;;;;;;18.13;51.40;101959.25;5075888;28;20033;-53
2022/05/02 06:29:30;;;;;;;23.20;13.55;;;;;;;18.26;50.82;101961.03;5074621;28;20056;-56
2022/05/02 06:31:58;;;;;;;22.98;12.27;;;;;;;18.37;50.09;101956.78;5056279;28;20044;-54
2022/05/02 06:34:28;;;;;;;19.48;12.45;;;;;;;18.37;50.56;101964.09;5069549;28;20052;-55
2022/05/02 06:37:25;;;;;;;23.77;11.73;;;;;;;18.48;50.67;101956.09;5075665;28;20032;-53
2022/05/02 06:40:33;;;;;;;20.02;10.88;;;;;;;18.70;50.35;101961.09;5076260;28;20036;-54
2022/05/02 06:43:01;;;;;;;23.23;12.73;;;;;;;18.62;50.94;101956.78;5064511;28;20063;-52
2022/05/02 06:45:37;;;;;;;40.13;13.52;;;;;;;18.83;50.69;101962.84;5072483;28;20037;-52
2022/05/02 06:48:18;;;;;;;22.30;12.52;;;;;;;19.04;49.90;101964.31;5073799;28;20104;-55
2022/05/02 06:50:47;;;;;;;22.25;12.65;;;;;;;19.16;50.12;101967.13;5059180;28;20097;-52
2022/05/02 06:53:50;;;;;;;23.55;12.07;;;;;;;19.35;50.11;101967.94;5063524;28;20025;-55
2022/05/02 06:56:50;;;;;;;26.00;12.90;;;;;;;19.13;50.36;101966.72;5072951;28;20066;-50
2022/05/02 06:59:54;;;;;;;31.10;12.98;;;;;;;19.43;49.88;101955.94;5071179;28;20035;-57
2022/05/02 07:02:32;;;;;;;21.48;11.50;;;;;;;19.40;49.89;101971.88;5055158;28;20067;-54
2022/05/02 07:05:22;;;;;;;25.43;12.40;;;;;;;18.28;52.00;101960.81;5063546;28;20041;-53
2022/05/02 07:08:04;;;;;;;18.03;10.50;;;;;;;18.18;51.31;101961.31;5070910;28;20277;-54
2022/05/02 07:10:34;;;;;;;24.20;12.33;;;;;;;18.20;52.08;101957.31;5061848;28;20297;-54
2022/05/02 07:13:16;;;;;;;20.10;11.27;;;;;;;18.33;52.21;101958.28;5060346;28;20358;-55
2022/05/02 07:15:50;;;;;;;20.17;11.03;;;;;;;18.33;51.54;101952.88;5068862;28;20273;-56
2022/05/02 07:18:41;;;;;;;21.67;11.73;;;;;;;18.38;51.88;101958.44;5077002;28;20269;-54
2022/05/02 07:21:29;;;;;;;22.37;10.63;;;;;;;18.34;51.48;101954.53;5063669;28;20262;-53
2022/05/02 07:24:15;;;;;;;15.98;10.80;;;;;;;18.57;50.71;101962.06;5076548;28;20261;-55
2022/05/02 07:26:45;;;;;;;20.57;10.87;;;;;;;18.77;50.15;101964.56;5076949;28;20167;-55
2022/05/02 07:29:12;;;;;;;23.37;11.20;;;;;;;18.75;50.49;101961.25;5067444;28;20287;-53
2022/05/02 07:31:38;;;;;;;20.50;11.40;;;;;;;18.97;51.28;101963.53;5073304;28;20340;-55
2022/05/02 07:34:06;;;;;;;18.77;11.80;;;;;;;18.91;50.98;101959.00;5074716;28;20270;-55
2022/05/02 07:36:33;;;;;;;17.47;10.77;;;;;;;19.15;50.37;101959.22;5070226;28;20037;-55
2022/05/02 07:39:02;;;;;;;20.40;11.77;;;;;;;19.39;49.63;101959.38;5072345;28;20265;-51
2022/05/02 07:41:28;;;;;;;20.57;10.63;;;;;;;19.50;49.14;101955.88;5075989;28;20289;-53
2022/05/02 07:44:05;;;;;;;15.70;9.50;;;;;;;19.56;47.01;101965.81;5067568;28;20294;-55
2022/05/02 07:46:35;;;;;;;21.37;10.43;;;;;;;19.61;47.39;101963.25;5075432;28;20040;-54
2022/05/02 07:49:03;;;;;;;20.13;9.83;;;;;;;19.48;47.53;101961.50;5076682;28;20045;-53
2022/05/02 07:51:29;;;;;;;16.23;9.50;;;;;;;19.66;46.67;101964.44;5071294;28;20289;-54
2022/05/02 07:53:57;;;;;;;19.20;10.05;;;;;;;19.74;46.56;101961.41;5082641;28;20277;-52
2022/05/02 07:56:25;;;;;;;16.10;10.50;;;;;;;19.83;46.33;101962.72;5082844;28;20039;-57
2022/05/02 07:58:53;;;;;;;18.80;10.23;;;;;;;19.94;46.15;101963.84;5081782;28;20333;-52
2022/05/02 08:01:20;;;;;;;14.37;8.20;;;;;;;19.91;45.58;101962.44;5069428;28;20275;-52
2022/05/02 08:03:46;;;;;;;16.07;9.90;;;;;;;20.10;45.09;101964.25;5074652;28;20837;-55
2022/05/02 08:06:18;;;;;;;12.82;8.88;;;;;;;20.03;44.16;101964.34;5087873;28;20262;-56
2022/05/02 08:09:14;;;;;;;14.97;8.03;;;;;;;20.08;43.38;101961.78;5089142;28;20058;-54
2022/05/02 08:11:49;;;;;;;17.40;9.63;;;;;;;20.29;43.49;101962.28;5059815;28;20262;-51
2022/05/02 08:14:22;;;;;;;18.53;9.23;;;;;;;20.31;41.81;101960.19;5084374;28;20273;-56
2022/05/02 08:17:02;;;;;;;21.73;10.40;;;;;;;20.52;41.61;101966.09;5083014;28;20270;-57
2022/05/02 08:19:45;;;;;;;14.53;9.13;;;;;;;20.56;41.66;101961.88;5092635;28;20270;-53
2022/05/02 08:28:02;;;;;;;13.87;7.87;;;;;;;20.70;39.76;101957.03;5067136;28;20261;-53
2022/05/02 08:30:32;;;;;;;11.00;6.00;;;;;;;20.82;39.46;101966.03;5085719;28;20270;-55
2022/05/02 08:33:03;;;;;;;12.90;6.60;;;;;;;20.80;39.67;101959.19;5072472;28;20274;-54
2022/05/02 08:35:58;;;;;;;16.80;7.60;;;;;;;20.83;39.18;101958.69;5074381;28;20293;-54
2022/05/02 08:39:02;;;;;;;13.57;7.10;;;;;;;21.15;38.69;101955.56;5083353;28;20294;-56
2022/05/02 08:41:33;;;;;;;11.63;8.13;;;;;;;21.20;38.13;101955.69;5072426;28;20281;-56
2022/05/02 08:44:37;;;;;;;13.33;8.00;;;;;;;21.32;37.84;101961.09;5081311;28;20298;-51
2022/05/02 08:47:29;;;;;;;14.83;8.60;;;;;;;21.27;37.36;101961.00;5070777;28;20297;-54
2022/05/02 08:50:21;;;;;;;14.93;8.77;;;;;;;21.62;37.28;101962.78;5070990;28;20282;-54
2022/05/02 08:53:28;;;;;;;14.27;8.80;;;;;;;21.27;37.75;101961.00;5067258;28;20326;-57
2022/05/02 08:55:56;;;;;;;15.63;7.83;;;;;;;21.78;37.00;101962.00;5071046;28;20274;-54
2022/05/02 08:58:45;;;;;;;14.47;7.23;;;;;;;21.88;37.29;101955.94;5065000;28;20270;-56
2022/05/02 09:01:50;;;;;;;12.63;8.10;;;;;;;22.23;36.61;101953.25;5076365;28;20282;-57
2022/05/02 09:05:16;;;;;;;12.87;7.83;;;;;;;21.91;36.94;101950.03;5076641;28;20316;-58
2022/05/02 09:07:56;;;;;;;11.40;7.37;;;;;;;22.43;35.86;101950.03;5057356;28;20278;-56
2022/05/02 09:10:45;;;;;;;13.17;7.90;;;;;;;22.66;35.47;101953.66;5070602;28;20278;-55
2022/05/02 09:13:53;;;;;;;14.53;8.47;;;;;;;22.68;35.19;101952.34;5072940;28;20411;-56
2022/05/02 09:16:43;;;;;;;13.40;8.00;;;;;;;23.38;34.69;101953.81;5065256;28;20033;-56
2022/05/02 09:20:02;;;;;;;13.13;7.87;;;;;;;23.81;33.07;101946.63;5067477;28;20030;-56
2022/05/02 09:22:47;;;;;;;10.57;7.40;;;;;;;24.63;32.53;101946.50;5049501;28;20156;-59
2022/05/02 09:25:25;;;;;;;13.97;7.93;;;;;;;25.29;31.03;101949.03;5059849;28;20037;-57
2022/05/02 09:27:54;;;;;;;14.87;8.13;;;;;;;25.91;29.58;101947.25;5068036;28;20032;-57
2022/05/02 09:30:38;;;;;;;11.70;7.30;;;;;;;26.63;29.18;101951.06;5068896;28;20036;-57
2022/05/02 09:33:25;;;;;;;9.60;6.93;;;;;;;27.13;28.52;101961.34;5069956;28;20037;-54
2022/05/02 09:35:59;;;;;;;14.20;6.93;;;;;;;28.04;27.13;101957.53;5065297;28;20049;-58
2022/05/02 09:38:27;;;;;;;11.87;6.70;;;;;;;28.90;25.94;101953.44;5073495;28;20032;-57
2022/05/02 09:41:04;;;;;;;11.00;7.63;;;;;;;29.52;24.96;101955.38;5081145;28;20044;-56
2022/05/02 09:49:47;;;;;;;15.15;6.93;;;;;;;30.46;23.69;101952.75;5090201;28;20053;-57
2022/05/02 09:52:25;;;;;;;9.18;6.30;;;;;;;31.29;22.69;101955.84;5074050;28;20029;-58
2022/05/02 09:58:20;;;;;;;11.65;7.07;;;;;;;32.63;21.17;101956.41;5064239;28;20036;-56
2022/05/02 10:01:06;;;;;;;10.07;6.20;;;;;;;33.88;20.40;101949.56;5081977;28;20033;-54
2022/05/02 10:04:00;;;;;;;11.03;6.83;;;;;;;34.34;19.45;101951.09;5075151;28;20058;-57
2022/05/02 10:06:46;;;;;;;11.07;6.80;;;;;;;34.57;19.27;101957.22;5088349;28;20373;-57
2022/05/02 10:09:29;;;;;;;11.18;6.88;;;;;;;34.39;19.21;101951.75;5077190;28;20048;-56
2022/05/02 10:12:18;;;;;;;17.17;9.15;;;;;;;32.11;20.52;101946.69;5059044;28;20047;-58
2022/05/02 10:15:08;;;;;;;16.48;7.43;;;;;;;31.04;22.09;101933.94;5086169;28;20039;-56
2022/05/02 10:18:14;;;;;;;13.40;6.35;;;;;;;31.52;21.44;101940.09;5077197;28;20037;-56
2022/05/02 10:21:06;;;;;;;11.95;6.70;;;;;;;32.62;20.63;101941.75;5082101;28;20036;-57
2022/05/02 10:23:48;;;;;;;9.75;5.82;;;;;;;33.38;20.03;101945.34;5075346;28;20051;-56
2022/05/02 10:26:22;;;;;;;7.28;5.18;;;;;;;33.42;20.37;101938.03;5077545;28;20025;-57
2022/05/02 10:29:06;;;;;;;10.93;6.00;;;;;;;34.23;19.65;101948.69;5073563;28;20096;-59
2022/05/02 10:31:34;;;;;;;9.35;5.55;;;;;;;33.88;20.19;101943.22;5075420;28;20072;-59
2022/05/02 10:34:03;;;;;;;6.75;5.60;;;;;;;34.79;18.54;101944.22;5072348;28;20043;-55
2022/05/02 10:36:37;;;;;;;9.52;6.10;;;;;;;35.11;18.20;101941.91;5066355;28;20356;-58
2022/05/02 10:39:12;;;;;;;10.82;5.10;;;;;;;35.58;17.59;101935.31;5066876;28;20033;-59
2022/05/02 10:41:48;;;;;;;7.43;5.70;;;;;;;35.26;17.64;101932.94;5069064;28;20068;-57
2022/05/02 10:44:16;;;;;;;10.73;5.97;;;;;;;35.49;17.71;101929.81;5063283;28;20062;-60
2022/05/02 10:46:46;;;;;;;7.75;5.53;;;;;;;34.66;18.64;101932.19;5075904;28;20043;-58
2022/05/02 10:49:21;;;;;;;7.22;4.88;;;;;;;35.26;17.92;101932.94;5078863;28;20069;-59
2022/05/02 10:52:10;;;;;;;12.10;5.85;;;;;;;35.93;17.22;101931.38;5077703;28;20036;-58
2022/05/02 10:54:45;;;;;;;11.15;5.40;;;;;;;36.68;16.36;101933.13;5076496;28;20037;-58
2022/05/02 10:57:26;;;;;;;10.07;5.20;;;;;;;36.98;16.00;101930.03;5066810;28;20040;-59
2022/05/02 10:59:53;;;;;;;9.70;5.75;;;;;;;35.63;16.64;101915.63;5065689;28;20037;-58
2022/05/02 11:02:24;;;;;;;7.15;4.90;;;;;;;36.47;16.01;101922.06;5068860;28;20045;-58
2022/05/02 11:05:04;;;;;;;8.88;6.30;;;;;;;36.95;15.86;101916.00;5074977;28;20044;-59
2022/05/02 11:07:51;;;;;;;9.88;5.40;;;;;;;37.61;15.84;101916.72;5075981;28;20016;-58
2022/05/02 11:10:20;;;;;;;;;;;;;;;38.06;15.40;101919.50;5076900;28;20053;-59
2022/05/02 11:12:51;;;;;;;8.73;4.57;;;;;;;38.34;14.28;101916.63;5062312;28;19913;-60
2022/05/02 11:15:18;;;;;;;9.05;4.38;;;;;;;37.81;14.56;101903.69;5076374;28;20104;-57
2022/05/02 11:18:08;;;;;;;7.05;4.78;;;;;;;37.95;14.53;101900.50;5072637;28;20092;-58
2022/05/02 11:20:48;;;;;;;8.32;4.93;;;;;;;37.51;15.62;101901.31;5077066;28;20044;-59
2022/05/02 11:23:39;;;;;;;18.70;10.25;;;;;;;38.25;15.70;101904.81;5076914;28;20032;-60
2022/05/02 11:26:27;;;;;;;7.22;5.10;;;;;;;38.90;15.18;101902.72;5069958;28;20032;-59
2022/05/02 11:29:21;;;;;;;7.85;5.18;;;;;;;39.11;14.31;101899.59;5083778;28;20053;-58
2022/05/02 11:31:51;;;;;;;5.85;4.25;;;;;;;39.92;13.13;101900.72;5060647;28;20029;-61
2022/05/02 11:34:41;;;;;;;8.80;4.93;;;;;;;40.21;13.54;101897.59;5084448;28;20039;-60
2022/05/02 11:37:20;;;;;;;6.65;4.22;;;;;;;40.88;13.16;101896.19;5081617;28;20037;-59
2022/05/02 11:39:55;;;;;;;12.30;6.68;;;;;;;40.55;13.70;101889.31;5063809;28;20048;-60
2022/05/02 11:42:22;;;;;;;6.88;4.88;;;;;;;40.92;12.94;101891.44;5066065;28;20033;-59
2022/05/02 11:45:10;;;;;;;6.63;4.32;;;;;;;41.49;12.39;101884.84;5074131;28;20051;-59
2022/05/02 11:48:11;;;;;;;6.93;4.30;;;;;;;40.79;13.12;101888.06;5077551;28;20040;-59
2022/05/02 11:50:44;;;;;;;6.75;4.28;;;;;;;41.13;12.96;101890.88;5076131;28;20364;-60
2022/05/02 11:53:13;;;;;;;6.00;4.50;;;;;;;40.21;13.74;101880.78;5063849;28;20090;-60
2022/05/02 11:55:41;;;;;;;7.07;4.50;;;;;;;39.69;13.28;101878.34;5070018;28;20152;-59
2022/05/02 11:58:48;;;;;;;7.40;4.35;;;;;;;41.42;12.62;101882.00;5060190;28;20102;-59
2022/05/02 12:01:25;;;;;;;7.43;3.90;;;;;;;41.17;12.53;101882.53;5052952;28;20032;-60
2022/05/02 12:04:00;;;;;;;7.07;3.97;;;;;;;40.58;12.68;101880.13;5075280;28;20037;-59
2022/05/02 12:07:01;;;;;;;8.95;4.95;;;;;;;40.88;12.65;101876.56;5067794;28;20033;-54
2022/05/02 12:09:29;;;;;;;8.25;4.15;;;;;;;41.92;12.04;101878.03;5060645;28;20127;-59
2022/05/02 12:11:56;;;;;;;7.47;4.70;;;;;;;41.98;11.85;101866.06;5076847;28;20024;-59